Weather at Chicago Midway International Airport

Public forecast

Using degrees Fahrenheit for public forecast. Weather courtesy of forecast.io.

Current aviation weather report (METAR) for Chicago Midway International Airport

Retrieved 2022/05/23 08:53 UTC (29 minutes ago):

KMDW 230853Z 03004KT 10SM SCT250 11/04 A3035 RMK AO2 SLP278 T01110039 56004

Aviation forecast (TAF) for Chicago Midway International Airport

Forecast is more than 6 hours old.

Retrieved 2022-05-23 00:27 UTC (9 hours ago):

TAF KMDW 222325Z 2300/2406 09009KT P6SM FEW070 BKN250 FM230300 01003KT P6SM FEW070 SCT200 FM231400 05010KT P6SM FEW050 SCT150